Nova Olimpia, Brazil
Current Conditions -  °F | °C
As of 2:00 PM on Thursday 30 Oct 2014 (Local Time) from SBCA Reporting Station
Scattered Clouds Scattered Clouds  
Wind Chill: 88°   Ceiling: Unl
Heat Index: 89°   Visibility: 6mi
Dew Point: 64°   Wind: 23mph
Humidity: 46%   Direction: 330°NNW
Pressure: 29.83"   Gusts: 39mph
Location:  23.47°S, 53.09°W
Report Text: SBCA 301600Z 33020G34KT 9999 SCT040 FEW050TCU 31/18 Q1010
Loading
Personal Weather Stations






























Interactive Weather Map
Tropical Storm Tracking
New forecast layout! Learn more

10-Day Weather Forecast

Advertisements
Track Severe Weather on mobile